sensor_id;sensor_type;location;lat;lon;timestamp;pressure;altitude;pressure_sealevel;temperature;humidity
46846;BME280;33947;46.804;134.252;2023-02-22T00:01:13;101985.06;;;-14.96;52.44
46846;BME280;33947;46.804;134.252;2023-02-22T00:04:39;102002.75;;;-14.80;51.96
46846;BME280;33947;46.804;134.252;2023-02-22T00:07:49;101995.69;;;-14.47;52.32
46846;BME280;33947;46.804;134.252;2023-02-22T00:10:53;101956.59;;;-14.29;51.82
46846;BME280;33947;46.804;134.252;2023-02-22T00:13:58;101997.38;;;-13.48;50.27
46846;BME280;33947;46.804;134.252;2023-02-22T00:17:02;101982.44;;;-13.71;49.82
46846;BME280;33947;46.804;134.252;2023-02-22T00:20:07;102005.69;;;-13.31;51.01
46846;BME280;33947;46.804;134.252;2023-02-22T00:23:21;101992.28;;;-13.01;50.61
46846;BME280;33947;46.804;134.252;2023-02-22T00:26:25;101972.22;;;-12.09;52.27
46846;BME280;33947;46.804;134.252;2023-02-22T00:29:30;101962.38;;;-11.23;49.15
46846;BME280;33947;46.804;134.252;2023-02-22T00:32:38;101983.09;;;-10.37;49.83
46846;BME280;33947;46.804;134.252;2023-02-22T00:35:44;101986.09;;;-10.21;48.67
46846;BME280;33947;46.804;134.252;2023-02-22T00:38:51;101968.00;;;-9.11;48.09
46846;BME280;33947;46.804;134.252;2023-02-22T00:41:56;101987.38;;;-8.58;46.37
46846;BME280;33947;46.804;134.252;2023-02-22T00:45:06;101967.72;;;-7.59;45.42
46846;BME280;33947;46.804;134.252;2023-02-22T00:48:14;101964.13;;;-6.85;42.60
46846;BME280;33947;46.804;134.252;2023-02-22T00:51:20;101975.00;;;-6.77;42.16
46846;BME280;33947;46.804;134.252;2023-02-22T00:54:25;101979.47;;;-5.52;41.18
46846;BME280;33947;46.804;134.252;2023-02-22T00:57:29;101964.06;;;-4.77;41.12
46846;BME280;33947;46.804;134.252;2023-02-22T01:00:38;101952.88;;;-4.31;38.71
46846;BME280;33947;46.804;134.252;2023-02-22T01:03:42;101966.19;;;-4.40;38.43
46846;BME280;33947;46.804;134.252;2023-02-22T01:06:47;101975.06;;;-3.89;37.03
46846;BME280;33947;46.804;134.252;2023-02-22T01:09:51;101966.19;;;-3.78;35.78
46846;BME280;33947;46.804;134.252;2023-02-22T01:12:57;101961.53;;;-3.67;36.67
46846;BME280;33947;46.804;134.252;2023-02-22T01:16:01;101953.75;;;-3.01;36.05
46846;BME280;33947;46.804;134.252;2023-02-22T01:19:05;101934.44;;;-3.23;35.35
46846;BME280;33947;46.804;134.252;2023-02-22T01:22:10;101951.53;;;-2.58;34.00
46846;BME280;33947;46.804;134.252;2023-02-22T01:25:20;101932.13;;;-2.29;33.68
46846;BME280;33947;46.804;134.252;2023-02-22T01:28:25;101935.81;;;-1.69;33.55
46846;BME280;33947;46.804;134.252;2023-02-22T01:31:29;101913.56;;;-1.81;33.17
46846;BME280;33947;46.804;134.252;2023-02-22T01:34:34;101931.31;;;-1.72;34.90
46846;BME280;33947;46.804;134.252;2023-02-22T01:37:39;101931.28;;;-0.93;33.59
46846;BME280;33947;46.804;134.252;2023-02-22T01:40:46;101929.34;;;-0.35;32.53
46846;BME280;33947;46.804;134.252;2023-02-22T01:43:51;101922.91;;;-1.27;32.69
46846;BME280;33947;46.804;134.252;2023-02-22T01:46:57;101918.25;;;-0.51;32.72
46846;BME280;33947;46.804;134.252;2023-02-22T01:50:02;101917.13;;;-0.36;31.80
46846;BME280;33947;46.804;134.252;2023-02-22T01:53:08;101917.47;;;-0.04;32.19
46846;BME280;33947;46.804;134.252;2023-02-22T01:56:14;101911.97;;;-0.56;31.49
46846;BME280;33947;46.804;134.252;2023-02-22T01:59:19;101867.28;;;-0.64;30.17
46846;BME280;33947;46.804;134.252;2023-02-22T02:02:26;101904.06;;;0.09;30.93
46846;BME280;33947;46.804;134.252;2023-02-22T02:05:32;101881.84;;;-0.02;30.83
46846;BME280;33947;46.804;134.252;2023-02-22T02:08:44;101903.66;;;-0.02;31.41
46846;BME280;33947;46.804;134.252;2023-02-22T02:11:54;101897.84;;;0.30;31.02
46846;BME280;33947;46.804;134.252;2023-02-22T02:15:19;101883.03;;;-0.39;31.67
46846;BME280;33947;46.804;134.252;2023-02-22T02:18:26;101874.91;;;-0.47;31.17
46846;BME280;33947;46.804;134.252;2023-02-22T02:22:07;101888.25;;;-1.24;31.36
46846;BME280;33947;46.804;134.252;2023-02-22T02:32:09;101875.84;;;-1.89;32.62
46846;BME280;33947;46.804;134.252;2023-02-22T02:35:43;101849.59;;;-1.74;32.47
46846;BME280;33947;46.804;134.252;2023-02-22T02:39:24;101857.00;;;-2.41;33.53
46846;BME280;33947;46.804;134.252;2023-02-22T02:42:36;101858.94;;;-2.73;33.74
46846;BME280;33947;46.804;134.252;2023-02-22T02:49:12;101773.63;;;-3.16;32.82
46846;BME280;33947;46.804;134.252;2023-02-22T02:52:22;101837.59;;;-2.84;32.57
46846;BME280;33947;46.804;134.252;2023-02-22T02:55:31;101837.00;;;-2.96;32.35
46846;BME280;33947;46.804;134.252;2023-02-22T02:58:50;101828.53;;;-3.61;33.87
46846;BME280;33947;46.804;134.252;2023-02-22T03:18:48;101805.34;;;-4.08;36.40
46846;BME280;33947;46.804;134.252;2023-02-22T03:25:23;101806.22;;;-3.74;34.26
46846;BME280;33947;46.804;134.252;2023-02-22T03:28:35;101764.44;;;-3.96;34.29
46846;BME280;33947;46.804;134.252;2023-02-22T03:31:50;101775.31;;;-4.36;35.48
46846;BME280;33947;46.804;134.252;2023-02-22T03:35:11;101770.94;;;-4.04;35.48
46846;BME280;33947;46.804;134.252;2023-02-22T03:38:19;101755.69;;;-3.98;35.51
46846;BME280;33947;46.804;134.252;2023-02-22T03:41:25;101765.47;;;-3.75;34.85
46846;BME280;33947;46.804;134.252;2023-02-22T03:44:29;101757.88;;;-3.89;35.86
46846;BME280;33947;46.804;134.252;2023-02-22T03:47:42;101757.16;;;-4.19;36.78
46846;BME280;33947;46.804;134.252;2023-02-22T03:50:49;101719.28;;;-4.66;36.26
46846;BME280;33947;46.804;134.252;2023-02-22T03:53:53;101744.44;;;-4.15;35.98
46846;BME280;33947;46.804;134.252;2023-02-22T03:57:33;101729.03;;;-4.28;35.78
46846;BME280;33947;46.804;134.252;2023-02-22T04:00:40;101720.75;;;-4.54;36.60
46846;BME280;33947;46.804;134.252;2023-02-22T04:03:47;101721.22;;;-4.12;35.68
46846;BME280;33947;46.804;134.252;2023-02-22T04:06:51;101716.00;;;-4.78;36.57
46846;BME280;33947;46.804;134.252;2023-02-22T04:09:56;101700.47;;;-4.45;36.37
46846;BME280;33947;46.804;134.252;2023-02-22T04:13:00;101708.91;;;-4.16;36.00
46846;BME280;33947;46.804;134.252;2023-02-22T04:16:05;101709.69;;;-4.00;36.98
46846;BME280;33947;46.804;134.252;2023-02-22T04:19:10;101675.03;;;-4.19;36.09
46846;BME280;33947;46.804;134.252;2023-02-22T04:22:15;101700.13;;;-4.01;36.26
46846;BME280;33947;46.804;134.252;2023-02-22T04:25:22;101692.19;;;-4.04;36.18
46846;BME280;33947;46.804;134.252;2023-02-22T04:28:27;101697.75;;;-4.31;35.92
46846;BME280;33947;46.804;134.252;2023-02-22T04:31:52;101665.06;;;-4.44;36.31
46846;BME280;33947;46.804;134.252;2023-02-22T04:34:58;101672.50;;;-4.67;35.95
46846;BME280;33947;46.804;134.252;2023-02-22T04:38:04;101684.78;;;-4.31;36.38
46846;BME280;33947;46.804;134.252;2023-02-22T04:41:09;101665.31;;;-4.23;35.91
46846;BME280;33947;46.804;134.252;2023-02-22T04:44:14;101672.19;;;-4.40;36.74
46846;BME280;33947;46.804;134.252;2023-02-22T04:47:20;101672.31;;;-4.04;35.22
46846;BME280;33947;46.804;134.252;2023-02-22T04:50:25;101666.22;;;-3.88;35.58
46846;BME280;33947;46.804;134.252;2023-02-22T04:53:29;101661.69;;;-3.92;36.00
46846;BME280;33947;46.804;134.252;2023-02-22T04:56:34;101637.78;;;-4.19;35.71
46846;BME280;33947;46.804;134.252;2023-02-22T04:59:40;101617.47;;;-4.45;35.81
46846;BME280;33947;46.804;134.252;2023-02-22T05:02:47;101657.84;;;-4.33;37.01
46846;BME280;33947;46.804;134.252;2023-02-22T05:05:52;101652.88;;;-4.29;37.01
46846;BME280;33947;46.804;134.252;2023-02-22T05:08:56;101634.09;;;-4.41;35.79
46846;BME280;33947;46.804;134.252;2023-02-22T05:12:01;101625.59;;;-4.55;36.36
46846;BME280;33947;46.804;134.252;2023-02-22T05:15:06;101640.63;;;-4.15;36.01
46846;BME280;33947;46.804;134.252;2023-02-22T05:18:11;101640.72;;;-4.13;36.28
46846;BME280;33947;46.804;134.252;2023-02-22T05:21:15;101617.94;;;-4.19;36.34
46846;BME280;33947;46.804;134.252;2023-02-22T05:24:20;101608.28;;;-4.22;36.32
46846;BME280;33947;46.804;134.252;2023-02-22T05:27:25;101592.50;;;-4.26;36.64
46846;BME280;33947;46.804;134.252;2023-02-22T05:30:34;101606.03;;;-4.15;36.99
46846;BME280;33947;46.804;134.252;2023-02-22T05:33:38;101593.84;;;-3.98;36.56
46846;BME280;33947;46.804;134.252;2023-02-22T05:36:44;101614.06;;;-3.74;37.02
46846;BME280;33947;46.804;134.252;2023-02-22T05:39:49;101603.88;;;-4.06;37.20
46846;BME280;33947;46.804;134.252;2023-02-22T05:42:54;101589.56;;;-3.98;36.81
46846;BME280;33947;46.804;134.252;2023-02-22T05:45:59;101604.34;;;-3.79;35.72
46846;BME280;33947;46.804;134.252;2023-02-22T05:49:03;101568.38;;;-4.07;35.59
46846;BME280;33947;46.804;134.252;2023-02-22T05:52:07;101601.91;;;-3.57;35.48
46846;BME280;33947;46.804;134.252;2023-02-22T05:55:13;101580.69;;;-3.67;35.91
46846;BME280;33947;46.804;134.252;2023-02-22T05:58:18;101580.06;;;-3.61;35.89
46846;BME280;33947;46.804;134.252;2023-02-22T06:01:23;101598.19;;;-3.44;35.95
46846;BME280;33947;46.804;134.252;2023-02-22T06:04:28;101594.22;;;-3.36;35.57
46846;BME280;33947;46.804;134.252;2023-02-22T06:07:33;101565.41;;;-3.60;35.93
46846;BME280;33947;46.804;134.252;2023-02-22T06:10:38;101562.56;;;-3.65;36.00
46846;BME280;33947;46.804;134.252;2023-02-22T06:13:48;101594.63;;;-3.65;35.27
46846;BME280;33947;46.804;134.252;2023-02-22T06:16:54;101609.03;;;-3.71;35.84
46846;BME280;33947;46.804;134.252;2023-02-22T06:19:59;101597.66;;;-3.55;36.33
46846;BME280;33947;46.804;134.252;2023-02-22T06:23:04;101599.97;;;-3.43;36.05
46846;BME280;33947;46.804;134.252;2023-02-22T06:26:09;101587.69;;;-3.28;35.23
46846;BME280;33947;46.804;134.252;2023-02-22T06:29:13;101588.41;;;-3.12;35.22
46846;BME280;33947;46.804;134.252;2023-02-22T06:32:17;101585.19;;;-3.07;33.97
46846;BME280;33947;46.804;134.252;2023-02-22T06:35:21;101583.06;;;-3.15;34.65
46846;BME280;33947;46.804;134.252;2023-02-22T06:38:26;101572.13;;;-3.64;35.47
46846;BME280;33947;46.804;134.252;2023-02-22T06:41:30;101581.50;;;-3.68;35.74
46846;BME280;33947;46.804;134.252;2023-02-22T06:44:34;101576.50;;;-3.45;35.29
46846;BME280;33947;46.804;134.252;2023-02-22T06:47:39;101574.94;;;-3.41;35.37
46846;BME280;33947;46.804;134.252;2023-02-22T06:50:44;101575.38;;;-3.50;35.52
46846;BME280;33947;46.804;134.252;2023-02-22T06:53:48;101571.97;;;-3.49;36.08
46846;BME280;33947;46.804;134.252;2023-02-22T06:56:52;101570.44;;;-3.64;36.07
46846;BME280;33947;46.804;134.252;2023-02-22T06:59:56;101559.91;;;-3.49;36.09
46846;BME280;33947;46.804;134.252;2023-02-22T07:03:00;101569.19;;;-3.72;36.52
46846;BME280;33947;46.804;134.252;2023-02-22T07:06:07;101565.81;;;-3.51;36.44
46846;BME280;33947;46.804;134.252;2023-02-22T07:09:12;101536.75;;;-3.62;35.54
46846;BME280;33947;46.804;134.252;2023-02-22T07:12:16;101570.03;;;-3.35;35.07
46846;BME280;33947;46.804;134.252;2023-02-22T07:15:22;101564.63;;;-3.40;36.00
46846;BME280;33947;46.804;134.252;2023-02-22T07:18:28;101562.09;;;-3.38;36.02
46846;BME280;33947;46.804;134.252;2023-02-22T07:21:33;101564.69;;;-3.38;35.70
46846;BME280;33947;46.804;134.252;2023-02-22T07:24:37;101568.25;;;-3.36;36.53
46846;BME280;33947;46.804;134.252;2023-02-22T07:27:43;101563.88;;;-3.37;36.19
46846;BME280;33947;46.804;134.252;2023-02-22T07:30:48;101521.16;;;-3.62;36.48
46846;BME280;33947;46.804;134.252;2023-02-22T07:33:52;101559.75;;;-3.52;35.49
46846;BME280;33947;46.804;134.252;2023-02-22T07:36:57;101559.66;;;-3.53;35.80
46846;BME280;33947;46.804;134.252;2023-02-22T07:40:01;101551.47;;;-3.81;36.26
46846;BME280;33947;46.804;134.252;2023-02-22T07:43:27;101549.97;;;-3.75;35.98
46846;BME280;33947;46.804;134.252;2023-02-22T07:46:33;101537.56;;;-3.63;35.31
46846;BME280;33947;46.804;134.252;2023-02-22T07:49:37;101539.28;;;-4.00;35.69
46846;BME280;33947;46.804;134.252;2023-02-22T07:52:49;101541.28;;;-4.30;36.47
46846;BME280;33947;46.804;134.252;2023-02-22T07:56:01;101554.97;;;-4.33;36.64
46846;BME280;33947;46.804;134.252;2023-02-22T07:59:11;101539.47;;;-4.49;36.82
46846;BME280;33947;46.804;134.252;2023-02-22T08:02:24;101521.53;;;-4.45;36.89
46846;BME280;33947;46.804;134.252;2023-02-22T08:05:30;101497.56;;;-4.57;36.95
46846;BME280;33947;46.804;134.252;2023-02-22T08:08:35;101525.78;;;-4.29;36.13
46846;BME280;33947;46.804;134.252;2023-02-22T08:11:39;101527.13;;;-4.19;35.90
46846;BME280;33947;46.804;134.252;2023-02-22T08:14:44;101525.50;;;-4.17;36.16
46846;BME280;33947;46.804;134.252;2023-02-22T08:17:50;101505.59;;;-4.53;36.25
46846;BME280;33947;46.804;134.252;2023-02-22T08:20:54;101518.22;;;-4.59;36.09
46846;BME280;33947;46.804;134.252;2023-02-22T08:23:59;101521.31;;;-4.66;36.53
46846;BME280;33947;46.804;134.252;2023-02-22T08:27:05;101508.56;;;-4.80;36.30
46846;BME280;33947;46.804;134.252;2023-02-22T08:30:20;101522.72;;;-4.89;36.10
46846;BME280;33947;46.804;134.252;2023-02-22T08:33:26;101526.22;;;-4.89;36.40
46846;BME280;33947;46.804;134.252;2023-02-22T08:36:31;101521.78;;;-5.08;36.27
46846;BME280;33947;46.804;134.252;2023-02-22T08:39:37;101520.63;;;-5.13;36.97
46846;BME280;33947;46.804;134.252;2023-02-22T08:42:42;101475.38;;;-5.37;36.20
46846;BME280;33947;46.804;134.252;2023-02-22T08:45:48;101489.69;;;-5.60;36.66
46846;BME280;33947;46.804;134.252;2023-02-22T08:48:53;101482.00;;;-5.90;37.36
46846;BME280;33947;46.804;134.252;2023-02-22T08:51:58;101454.50;;;-6.21;37.47
46846;BME280;33947;46.804;134.252;2023-02-22T08:55:03;101521.63;;;-5.91;37.70
46846;BME280;33947;46.804;134.252;2023-02-22T08:58:08;101527.06;;;-5.86;37.56
46846;BME280;33947;46.804;134.252;2023-02-22T09:01:13;101524.09;;;-6.09;37.99
46846;BME280;33947;46.804;134.252;2023-02-22T09:04:29;101523.16;;;-6.26;38.18
46846;BME280;33947;46.804;134.252;2023-02-22T09:07:35;101539.03;;;-6.35;38.32
46846;BME280;33947;46.804;134.252;2023-02-22T09:10:39;101510.50;;;-6.51;38.49
46846;BME280;33947;46.804;134.252;2023-02-22T09:13:43;101534.75;;;-6.34;38.74
46846;BME280;33947;46.804;134.252;2023-02-22T09:16:48;101529.06;;;-6.29;38.09
46846;BME280;33947;46.804;134.252;2023-02-22T09:19:52;101515.94;;;-6.47;38.52
46846;BME280;33947;46.804;134.252;2023-02-22T09:22:57;101534.91;;;-6.46;38.70
46846;BME280;33947;46.804;134.252;2023-02-22T09:26:02;101521.19;;;-6.45;38.90
46846;BME280;33947;46.804;134.252;2023-02-22T09:29:08;101477.75;;;-7.11;40.22
46846;BME280;33947;46.804;134.252;2023-02-22T09:32:13;101520.94;;;-7.08;40.48
46846;BME280;33947;46.804;134.252;2023-02-22T09:35:21;101522.97;;;-6.74;39.81
46846;BME280;33947;46.804;134.252;2023-02-22T09:38:29;101511.75;;;-6.60;38.99
46846;BME280;33947;46.804;134.252;2023-02-22T09:41:38;101524.03;;;-6.71;39.23
46846;BME280;33947;46.804;134.252;2023-02-22T09:45:00;101509.34;;;-6.72;39.09
46846;BME280;33947;46.804;134.252;2023-02-22T09:48:06;101493.28;;;-6.96;39.56
46846;BME280;33947;46.804;134.252;2023-02-22T09:54:51;101514.44;;;-7.02;39.33
46846;BME280;33947;46.804;134.252;2023-02-22T09:58:00;101485.81;;;-7.20;39.54
46846;BME280;33947;46.804;134.252;2023-02-22T10:01:34;101471.31;;;-7.33;39.24
46846;BME280;33947;46.804;134.252;2023-02-22T10:05:04;101479.88;;;-7.19;39.03
46846;BME280;33947;46.804;134.252;2023-02-22T10:08:16;101499.69;;;-7.33;39.89
46846;BME280;33947;46.804;134.252;2023-02-22T10:11:57;101501.50;;;-7.45;40.36
46846;BME280;33947;46.804;134.252;2023-02-22T10:22:23;101492.59;;;-7.50;39.78
46846;BME280;33947;46.804;134.252;2023-02-22T10:25:32;101474.19;;;-7.83;40.16
46846;BME280;33947;46.804;134.252;2023-02-22T10:28:48;101455.84;;;-7.75;39.67
46846;BME280;33947;46.804;134.252;2023-02-22T10:32:03;101484.53;;;-7.83;40.03
46846;BME280;33947;46.804;134.252;2023-02-22T10:35:23;101484.91;;;-7.64;40.06
46846;BME280;33947;46.804;134.252;2023-02-22T10:38:31;101484.66;;;-7.53;40.31
46846;BME280;33947;46.804;134.252;2023-02-22T10:41:43;101474.41;;;-7.80;40.55
46846;BME280;33947;46.804;134.252;2023-02-22T10:44:51;101483.56;;;-8.26;41.43
46846;BME280;33947;46.804;134.252;2023-02-22T10:47:57;101481.00;;;-8.26;41.72
46846;BME280;33947;46.804;134.252;2023-02-22T10:51:04;101476.72;;;-8.39;42.46
46846;BME280;33947;46.804;134.252;2023-02-22T10:54:20;101476.63;;;-8.81;43.88
46846;BME280;33947;46.804;134.252;2023-02-22T10:57:30;101444.69;;;-8.96;43.87
46846;BME280;33947;46.804;134.252;2023-02-22T11:00:38;101477.72;;;-9.16;44.58
46846;BME280;33947;46.804;134.252;2023-02-22T11:03:43;101473.38;;;-9.04;44.34
46846;BME280;33947;46.804;134.252;2023-02-22T11:10:06;101462.50;;;-9.76;45.79
46846;BME280;33947;46.804;134.252;2023-02-22T11:13:39;101456.84;;;-9.95;46.20
46846;BME280;33947;46.804;134.252;2023-02-22T11:16:48;101445.00;;;-10.05;46.83
46846;BME280;33947;46.804;134.252;2023-02-22T11:19:54;101413.25;;;-10.55;47.33
46846;BME280;33947;46.804;134.252;2023-02-22T11:23:02;101459.13;;;-10.12;47.33
46846;BME280;33947;46.804;134.252;2023-02-22T11:26:13;101419.16;;;-10.32;47.29
46846;BME280;33947;46.804;134.252;2023-02-22T11:29:27;101440.41;;;-10.58;48.41
46846;BME280;33947;46.804;134.252;2023-02-22T11:32:43;101461.75;;;-10.59;49.03
46846;BME280;33947;46.804;134.252;2023-02-22T11:35:57;101454.34;;;-10.55;48.79
46846;BME280;33947;46.804;134.252;2023-02-22T11:39:03;101451.22;;;-10.63;49.00
46846;BME280;33947;46.804;134.252;2023-02-22T11:42:21;101440.06;;;-10.51;48.50
46846;BME280;33947;46.804;134.252;2023-02-22T11:45:26;101438.78;;;-10.33;46.56
46846;BME280;33947;46.804;134.252;2023-02-22T11:48:33;101434.25;;;-10.72;47.09
46846;BME280;33947;46.804;134.252;2023-02-22T11:51:52;101444.03;;;-11.02;48.87
46846;BME280;33947;46.804;134.252;2023-02-22T11:58:25;101422.41;;;-11.40;49.22
46846;BME280;33947;46.804;134.252;2023-02-22T12:01:46;101418.03;;;-11.98;50.71
46846;BME280;33947;46.804;134.252;2023-02-22T12:08:43;101419.91;;;-12.07;50.30
46846;BME280;33947;46.804;134.252;2023-02-22T12:12:25;101421.38;;;-11.99;50.18
46846;BME280;33947;46.804;134.252;2023-02-22T12:22:26;101417.81;;;-12.01;49.29
46846;BME280;33947;46.804;134.252;2023-02-22T12:25:56;101415.25;;;-12.23;50.41
46846;BME280;33947;46.804;134.252;2023-02-22T12:29:35;101414.66;;;-12.31;51.19
46846;BME280;33947;46.804;134.252;2023-02-22T12:32:50;101337.97;;;-12.62;50.39
46846;BME280;33947;46.804;134.252;2023-02-22T12:35:57;101400.72;;;-12.12;50.51
46846;BME280;33947;46.804;134.252;2023-02-22T12:39:31;101398.25;;;-12.33;50.67
46846;BME280;33947;46.804;134.252;2023-02-22T12:46:23;101383.09;;;-12.52;50.77
46846;BME280;33947;46.804;134.252;2023-02-22T12:49:37;101394.81;;;-12.66;51.15
46846;BME280;33947;46.804;134.252;2023-02-22T12:59:45;101393.84;;;-12.89;51.79
46846;BME280;33947;46.804;134.252;2023-02-22T13:03:50;101394.59;;;-12.90;51.15
46846;BME280;33947;46.804;134.252;2023-02-22T13:06:34;101384.91;;;-13.15;51.53
46846;BME280;33947;46.804;134.252;2023-02-22T13:13:09;101344.34;;;-13.53;52.28
46846;BME280;33947;46.804;134.252;2023-02-22T13:16:42;101372.69;;;-13.40;52.25
46846;BME280;33947;46.804;134.252;2023-02-22T13:20:29;101370.91;;;-13.51;52.29
46846;BME280;33947;46.804;134.252;2023-02-22T13:26:40;101367.47;;;-13.72;53.00
46846;BME280;33947;46.804;134.252;2023-02-22T13:29:48;101353.03;;;-13.61;52.39
46846;BME280;33947;46.804;134.252;2023-02-22T13:46:36;101352.16;;;-14.33;53.75
46846;BME280;33947;46.804;134.252;2023-02-22T13:50:01;101347.66;;;-14.46;54.19
46846;BME280;33947;46.804;134.252;2023-02-22T13:53:14;101337.75;;;-14.32;53.55
46846;BME280;33947;46.804;134.252;2023-02-22T13:56:21;101344.72;;;-14.50;54.04
46846;BME280;33947;46.804;134.252;2023-02-22T14:03:00;101337.06;;;-14.50;54.25
46846;BME280;33947;46.804;134.252;2023-02-22T14:06:11;101339.84;;;-14.58;53.83
46846;BME280;33947;46.804;134.252;2023-02-22T14:09:54;101317.31;;;-14.93;55.47
46846;BME280;33947;46.804;134.252;2023-02-22T14:13:08;101320.13;;;-14.90;55.12
46846;BME280;33947;46.804;134.252;2023-02-22T14:16:19;101334.88;;;-14.56;53.64
46846;BME280;33947;46.804;134.252;2023-02-22T14:19:23;101320.19;;;-14.59;53.66
46846;BME280;33947;46.804;134.252;2023-02-22T14:22:29;101338.44;;;-14.54;53.88
46846;BME280;33947;46.804;134.252;2023-02-22T14:25:41;101333.69;;;-14.70;54.98
46846;BME280;33947;46.804;134.252;2023-02-22T14:32:07;101320.94;;;-14.70;54.26
46846;BME280;33947;46.804;134.252;2023-02-22T14:35:19;101309.53;;;-14.84;53.84
46846;BME280;33947;46.804;134.252;2023-02-22T14:38:33;101321.94;;;-14.78;54.21
46846;BME280;33947;46.804;134.252;2023-02-22T14:41:38;101318.63;;;-14.77;53.85
46846;BME280;33947;46.804;134.252;2023-02-22T14:48:40;101320.91;;;-14.80;55.00
46846;BME280;33947;46.804;134.252;2023-02-22T14:51:53;101258.66;;;-14.93;54.22
46846;BME280;33947;46.804;134.252;2023-02-22T14:55:25;101303.00;;;-14.51;54.02
46846;BME280;33947;46.804;134.252;2023-02-22T14:58:41;101299.03;;;-14.58;53.33
46846;BME280;33947;46.804;134.252;2023-02-22T15:02:04;101298.63;;;-14.62;53.49
46846;BME280;33947;46.804;134.252;2023-02-22T15:05:16;101268.38;;;-14.89;53.44
46846;BME280;33947;46.804;134.252;2023-02-22T15:08:22;101252.91;;;-14.90;53.68
46846;BME280;33947;46.804;134.252;2023-02-22T15:11:31;101254.34;;;-14.84;53.91
46846;BME280;33947;46.804;134.252;2023-02-22T15:14:36;101296.09;;;-14.52;52.94
46846;BME280;33947;46.804;134.252;2023-02-22T15:17:44;101284.78;;;-14.95;54.51
46846;BME280;33947;46.804;134.252;2023-02-22T15:21:01;101267.81;;;-15.24;55.29
46846;BME280;33947;46.804;134.252;2023-02-22T15:24:08;101300.59;;;-15.19;56.77
46846;BME280;33947;46.804;134.252;2023-02-22T15:27:16;101289.38;;;-15.40;57.46
46846;BME280;33947;46.804;134.252;2023-02-22T15:30:25;101294.97;;;-15.25;57.15
46846;BME280;33947;46.804;134.252;2023-02-22T15:33:30;101298.38;;;-14.65;55.39
46846;BME280;33947;46.804;134.252;2023-02-22T15:36:41;101297.34;;;-14.17;52.69
46846;BME280;33947;46.804;134.252;2023-02-22T15:39:46;101290.97;;;-14.02;51.97
46846;BME280;33947;46.804;134.252;2023-02-22T15:42:51;101284.06;;;-14.03;52.01
46846;BME280;33947;46.804;134.252;2023-02-22T15:45:57;101289.94;;;-14.14;52.83
46846;BME280;33947;46.804;134.252;2023-02-22T15:52:19;101251.06;;;-15.12;56.39
46846;BME280;33947;46.804;134.252;2023-02-22T15:55:28;101272.88;;;-15.05;56.99
46846;BME280;33947;46.804;134.252;2023-02-22T15:58:33;101265.28;;;-14.14;54.21
46846;BME280;33947;46.804;134.252;2023-02-22T16:01:45;101263.00;;;-12.94;51.90
46846;BME280;33947;46.804;134.252;2023-02-22T16:04:57;101221.94;;;-12.28;51.57
46846;BME280;33947;46.804;134.252;2023-02-22T16:08:18;101256.06;;;-11.36;50.35
46846;BME280;33947;46.804;134.252;2023-02-22T16:11:48;101249.94;;;-11.14;50.23
46846;BME280;33947;46.804;134.252;2023-02-22T16:14:53;101242.41;;;-10.87;49.98
46846;BME280;33947;46.804;134.252;2023-02-22T16:18:16;101231.78;;;-10.80;50.59
46846;BME280;33947;46.804;134.252;2023-02-22T16:21:53;101234.78;;;-10.36;50.46
46846;BME280;33947;46.804;134.252;2023-02-22T16:25:23;101226.19;;;-10.23;49.27
46846;BME280;33947;46.804;134.252;2023-02-22T16:28:30;101226.69;;;-10.29;49.63
46846;BME280;33947;46.804;134.252;2023-02-22T16:31:39;101211.06;;;-10.32;49.26
46846;BME280;33947;46.804;134.252;2023-02-22T16:34:49;101230.41;;;-10.37;50.08
46846;BME280;33947;46.804;134.252;2023-02-22T16:38:01;101237.78;;;-10.17;49.14
46846;BME280;33947;46.804;134.252;2023-02-22T16:41:09;101212.28;;;-10.27;49.66
46846;BME280;33947;46.804;134.252;2023-02-22T16:44:16;101219.97;;;-10.27;49.35
46846;BME280;33947;46.804;134.252;2023-02-22T16:47:23;101227.50;;;-10.17;49.98
46846;BME280;33947;46.804;134.252;2023-02-22T16:50:30;101211.56;;;-9.99;49.39
46846;BME280;33947;46.804;134.252;2023-02-22T16:53:36;101224.25;;;-9.89;49.17
46846;BME280;33947;46.804;134.252;2023-02-22T16:56:40;101195.78;;;-9.78;48.39
46846;BME280;33947;46.804;134.252;2023-02-22T16:59:45;101202.78;;;-9.89;48.59
46846;BME280;33947;46.804;134.252;2023-02-22T17:02:52;101198.53;;;-10.02;49.21
46846;BME280;33947;46.804;134.252;2023-02-22T17:05:57;101195.81;;;-10.17;49.83
46846;BME280;33947;46.804;134.252;2023-02-22T17:09:01;101198.66;;;-10.12;49.91
46846;BME280;33947;46.804;134.252;2023-02-22T17:12:07;101166.88;;;-10.79;49.63
46846;BME280;33947;46.804;134.252;2023-02-22T17:15:33;101198.38;;;-11.05;50.85
46846;BME280;33947;46.804;134.252;2023-02-22T17:18:38;101194.28;;;-11.86;52.29
46846;BME280;33947;46.804;134.252;2023-02-22T17:21:42;101204.06;;;-12.51;52.47
46846;BME280;33947;46.804;134.252;2023-02-22T17:24:47;101112.00;;;-13.62;53.95
46846;BME280;33947;46.804;134.252;2023-02-22T17:27:51;101205.66;;;-13.73;53.55
46846;BME280;33947;46.804;134.252;2023-02-22T17:30:57;101189.75;;;-14.32;56.10
46846;BME280;33947;46.804;134.252;2023-02-22T17:34:04;101147.47;;;-14.60;56.27
46846;BME280;33947;46.804;134.252;2023-02-22T17:37:09;101192.41;;;-14.20;55.94
46846;BME280;33947;46.804;134.252;2023-02-22T17:40:14;101150.53;;;-14.64;56.22
46846;BME280;33947;46.804;134.252;2023-02-22T17:43:18;101175.44;;;-14.41;56.52